DAOB/TID METAR and TAF weather

Enter ICAO airport designator
Station Type Date Time Source
DAOB METAR 2019/08/24 09:00 UTC NOAA

DAOB 240900Z 31004KT CAVOK 27/07 Q1021


Station Type Date Time Source
DAOB Decoded METAR 2019/08/24 09:00 UTC NOAA

Station name not available
Aug 24, 2019 - 05:00 AM EDT / 2019.08.24 0900 UTC
Wind: from the NW (310 degrees) at 5 MPH (4 KT):0
Visibility: greater than 7 mile(s):0
Temperature: 80 F (27 C)
Dew Point: 44 F (7 C)
Relative Humidity: 28%
Pressure (altimeter): 30.15 in. Hg (1021 hPa)
ob: DAOB 240900Z 31004KT CAVOK 27/07 Q1021
cycle: 9

Station Type Date Time Source
DAOB TAF 2019/08/24 06:33 UTC NOAA

TAF DAOB 240500Z 2406/2506 VRB02KT CAVOK
BECMG 2410/2414 31014KT
BECMG 2421/2424 VRB02KT PROB30
TEMPO 2503/2506 4000 BR BKN015

Example: see airport list